createdAt,value
2022-09-20T00:01:39.695Z,99116.25
2022-09-20T00:04:11.579Z,99126.56
2022-09-20T00:06:39.609Z,99118.28
2022-09-20T00:09:07.587Z,99107.53
2022-09-20T00:11:36.735Z,99114.63
2022-09-20T00:14:08.348Z,99114.88
2022-09-20T00:16:38.000Z,99114.63
2022-09-20T00:19:06.536Z,99110.53
2022-09-20T00:21:37.731Z,99107.59
2022-09-20T00:24:08.380Z,99107.00
2022-09-20T00:26:36.384Z,99103.63
2022-09-20T00:29:05.342Z,99108.47
2022-09-20T00:31:33.373Z,99110.94
2022-09-20T00:34:19.029Z,99100.22
2022-09-20T00:36:48.751Z,99106.19
2022-09-20T00:39:17.374Z,99104.41
2022-09-20T00:41:45.502Z,99110.56
2022-09-20T00:44:31.882Z,99111.38
2022-09-20T00:47:01.066Z,99108.50
2022-09-20T00:49:29.482Z,99107.63
2022-09-20T00:52:01.566Z,99113.47
2022-09-20T00:54:31.375Z,99104.75
2022-09-20T00:57:01.743Z,99103.72
2022-09-20T00:59:34.110Z,99098.91
2022-09-20T01:02:03.825Z,99103.06
2022-09-20T01:04:35.730Z,99095.81
2022-09-20T01:07:07.069Z,99099.47
2022-09-20T01:09:35.071Z,99094.63
2022-09-20T01:12:07.746Z,99108.88
2022-09-20T01:14:36.180Z,99103.34
2022-09-20T01:17:05.798Z,99097.19
2022-09-20T01:19:38.682Z,99107.13
2022-09-20T01:22:23.228Z,99106.09
2022-09-20T01:24:59.754Z,99114.28
2022-09-20T01:27:37.405Z,99103.91
2022-09-20T01:30:07.348Z,99105.78
2022-09-20T01:32:41.252Z,99095.19
2022-09-20T01:35:12.495Z,99091.84
2022-09-20T01:37:48.166Z,99096.03
2022-09-20T01:40:20.537Z,99088.03
2022-09-20T01:42:56.925Z,99082.84
2022-09-20T01:45:28.353Z,99071.41
2022-09-20T01:48:01.587Z,99069.13
2022-09-20T01:50:34.734Z,99069.88
2022-09-20T01:53:12.336Z,99069.53
2022-09-20T01:55:50.418Z,99067.41
2022-09-20T01:59:01.932Z,99074.06
2022-09-20T02:01:48.958Z,99061.00
2022-09-20T02:04:31.679Z,99060.00
2022-09-20T02:07:17.618Z,99057.09
2022-09-20T02:09:54.358Z,99051.66
2022-09-20T02:12:33.600Z,99064.50
2022-09-20T02:15:07.868Z,99070.53
2022-09-20T02:17:42.684Z,99067.66
2022-09-20T02:20:16.962Z,99062.28
2022-09-20T02:22:54.113Z,99063.53
2022-09-20T02:25:30.321Z,99065.06
2022-09-20T02:28:08.174Z,99062.00
2022-09-20T02:30:45.694Z,99058.84
2022-09-20T02:33:30.148Z,99069.09
2022-09-20T02:36:08.781Z,99056.44
2022-09-20T02:38:46.162Z,99050.00
2022-09-20T02:41:32.130Z,99062.50
2022-09-20T02:44:03.979Z,99052.53
2022-09-20T02:46:38.700Z,99045.44
2022-09-20T02:49:11.618Z,99047.13
2022-09-20T02:51:42.615Z,99041.25
2022-09-20T02:54:16.354Z,99036.25
2022-09-20T02:56:48.722Z,99042.63
2022-09-20T02:59:24.057Z,99052.22
2022-09-20T03:01:57.382Z,99051.84
2022-09-20T03:04:34.138Z,99056.09
2022-09-20T03:07:04.858Z,99057.31
2022-09-20T03:09:36.108Z,99056.59
2022-09-20T03:12:12.557Z,99060.25
2022-09-20T03:14:43.331Z,99072.66
2022-09-20T03:17:18.881Z,99075.81
2022-09-20T03:20:01.579Z,99075.19
2022-09-20T03:22:37.170Z,99082.66
2022-09-20T03:25:14.977Z,99081.03
2022-09-20T03:27:49.913Z,99074.31
2022-09-20T03:30:25.264Z,99082.59
2022-09-20T03:33:01.055Z,99078.81
2022-09-20T03:35:41.410Z,99080.22
2022-09-20T03:38:20.612Z,99076.72
2022-09-20T03:41:08.630Z,99075.41
2022-09-20T03:43:44.230Z,99071.63
2022-09-20T03:46:17.498Z,99069.44
2022-09-20T03:48:57.689Z,99067.09
2022-09-20T03:51:33.815Z,99073.28
2022-09-20T03:54:14.183Z,99078.59
2022-09-20T03:56:53.848Z,99082.09
2022-09-20T03:59:43.432Z,99090.66
2022-09-20T04:02:21.829Z,99094.44
2022-09-20T04:04:54.067Z,99104.03
2022-09-20T04:07:33.871Z,99098.31
2022-09-20T04:10:17.173Z,99106.78
2022-09-20T04:12:50.927Z,99112.53
2022-09-20T04:15:23.842Z,99108.03
2022-09-20T04:17:58.100Z,99110.56
2022-09-20T04:20:32.263Z,99102.38
2022-09-20T04:23:06.542Z,99094.94
2022-09-20T04:25:43.043Z,99094.34
2022-09-20T04:28:14.970Z,99094.50
2022-09-20T04:30:44.233Z,99101.38
2022-09-20T04:33:17.015Z,99102.34
2022-09-20T04:36:06.361Z,99103.94
2022-09-20T04:38:36.631Z,99098.13
2022-09-20T04:41:17.924Z,99087.16
2022-09-20T04:44:03.205Z,99099.06
2022-09-20T04:46:56.238Z,99090.78
2022-09-20T04:49:42.297Z,99088.75
2022-09-20T04:52:27.897Z,99096.59
2022-09-20T04:55:29.131Z,99105.69
2022-09-20T04:58:09.448Z,99107.88
2022-09-20T05:00:43.773Z,99116.41
2022-09-20T05:03:23.811Z,99120.16
2022-09-20T05:06:06.362Z,99124.91
2022-09-20T05:08:58.006Z,99135.81
2022-09-20T05:11:47.158Z,99138.78
2022-09-20T05:14:38.507Z,99147.59
2022-09-20T05:17:14.736Z,99152.34
2022-09-20T05:19:50.854Z,99161.94
2022-09-20T05:22:42.647Z,99155.13
2022-09-20T05:25:27.568Z,99162.25
2022-09-20T05:27:58.200Z,99164.66
2022-09-20T05:30:35.073Z,99167.72
2022-09-20T05:33:11.518Z,99167.00
2022-09-20T05:35:43.239Z,99156.50
2022-09-20T05:38:14.779Z,99146.41
2022-09-20T05:40:53.205Z,99146.38
2022-09-20T05:43:26.945Z,99138.41
2022-09-20T05:46:04.769Z,99132.75
2022-09-20T05:48:39.643Z,99129.63
2022-09-20T05:51:13.571Z,99119.34
2022-09-20T05:53:59.255Z,99119.91
2022-09-20T05:56:35.857Z,99125.41
2022-09-20T05:59:22.432Z,99126.03
2022-09-20T06:02:02.091Z,99130.16
2022-09-20T06:04:39.646Z,99133.09
2022-09-20T06:07:14.639Z,99137.91
2022-09-20T06:09:51.232Z,99143.44
2022-09-20T06:12:29.753Z,99151.03
2022-09-20T06:15:03.201Z,99149.91
2022-09-20T06:17:35.819Z,99153.16
2022-09-20T06:20:17.044Z,99152.19
2022-09-20T06:22:47.109Z,99140.94
2022-09-20T06:25:17.669Z,99143.34
2022-09-20T06:27:48.206Z,99154.50
2022-09-20T06:30:18.006Z,99148.66
2022-09-20T06:32:57.314Z,99153.56
2022-09-20T06:35:27.235Z,99150.91
2022-09-20T06:38:16.101Z,99154.69
2022-09-20T06:41:03.929Z,99132.44
2022-09-20T06:43:31.979Z,99167.78
2022-09-20T06:46:00.099Z,99168.06
2022-09-20T06:48:31.503Z,99167.28
2022-09-20T06:51:02.566Z,99164.59
2022-09-20T06:53:32.539Z,99162.50
2022-09-20T06:56:01.248Z,99156.13
2022-09-20T06:58:29.583Z,99154.72
2022-09-20T07:00:57.850Z,99153.88
2022-09-20T07:03:25.951Z,99149.09
2022-09-20T07:05:55.280Z,99143.03
2022-09-20T07:08:23.350Z,99138.81
2022-09-20T07:10:51.404Z,99138.19
2022-09-20T07:13:21.392Z,99141.94
2022-09-20T07:15:50.580Z,99140.88
2022-09-20T07:18:18.538Z,99139.03
2022-09-20T07:20:47.102Z,99135.41
2022-09-20T07:23:19.267Z,99140.88
2022-09-20T07:25:47.307Z,99133.72
2022-09-20T07:28:19.819Z,99137.91
2022-09-20T07:30:48.153Z,99139.44
2022-09-20T07:33:21.442Z,99154.75
2022-09-20T07:35:49.933Z,99148.59
2022-09-20T07:38:19.353Z,99130.44
2022-09-20T07:40:47.383Z,99140.72
2022-09-20T07:43:15.377Z,99134.56
2022-09-20T07:45:43.438Z,99135.81
2022-09-20T07:48:11.474Z,99139.91
2022-09-20T07:50:39.568Z,99133.00
2022-09-20T07:53:07.604Z,99137.53
2022-09-20T07:55:37.027Z,99139.47
2022-09-20T07:58:05.046Z,99133.19
2022-09-20T08:00:33.032Z,99147.88
2022-09-20T08:03:01.758Z,99146.38
2022-09-20T08:05:30.617Z,99132.09
2022-09-20T08:07:59.729Z,99139.13
2022-09-20T08:10:28.170Z,99132.19
2022-09-20T08:15:45.513Z,99133.97
2022-09-20T08:18:16.195Z,99139.25
2022-09-20T08:20:46.600Z,99146.13
2022-09-20T08:23:23.405Z,99155.31
2022-09-20T08:25:52.097Z,99151.53
2022-09-20T08:28:21.422Z,99157.75
2022-09-20T08:30:49.401Z,99157.81
2022-09-20T08:33:17.397Z,99144.84
2022-09-20T08:35:49.121Z,99141.06
2022-09-20T08:41:07.282Z,99133.06
2022-09-20T08:43:39.751Z,99127.78
2022-09-20T08:46:11.867Z,99129.63
2022-09-20T08:48:42.046Z,99133.06
2022-09-20T08:51:11.406Z,99113.53
2022-09-20T08:53:49.261Z,99121.09
2022-09-20T08:56:17.677Z,99119.91
2022-09-20T08:58:49.579Z,99119.94
2022-09-20T09:01:21.897Z,99122.13
2022-09-20T09:03:53.097Z,99115.94
2022-09-20T09:06:22.648Z,99115.47
2022-09-20T09:08:53.536Z,99110.63
2022-09-20T09:11:23.460Z,99123.38
2022-09-20T09:13:54.323Z,99124.25
2022-09-20T09:16:28.751Z,99126.47
2022-09-20T09:19:26.033Z,99115.34
2022-09-20T09:21:57.165Z,99116.16
2022-09-20T09:24:25.514Z,99119.75
2022-09-20T09:27:05.602Z,99116.44
2022-09-20T09:29:35.168Z,99124.16
2022-09-20T09:32:19.686Z,99118.50
2022-09-20T09:34:47.674Z,99119.59
2022-09-20T09:37:28.780Z,99113.38
2022-09-20T09:40:07.461Z,99114.16
2022-09-20T09:42:36.145Z,99113.22
2022-09-20T09:45:27.137Z,99108.38
2022-09-20T09:47:55.376Z,99120.81
2022-09-20T09:50:26.831Z,99114.34
2022-09-20T09:53:10.604Z,99120.91
2022-09-20T09:55:56.278Z,99110.50
2022-09-20T09:58:33.027Z,99121.63
2022-09-20T10:01:05.352Z,99120.31
2022-09-20T10:03:41.531Z,99118.72
2022-09-20T10:06:16.585Z,99118.69
2022-09-20T10:08:51.035Z,99120.13
2022-09-20T10:11:25.086Z,99120.91
2022-09-20T10:14:03.072Z,99125.97
2022-09-20T10:16:39.658Z,99120.81
2022-09-20T10:19:22.519Z,99115.63
2022-09-20T10:21:56.170Z,99117.41
2022-09-20T10:24:30.987Z,99119.59
2022-09-20T10:27:08.068Z,99107.38
2022-09-20T10:29:42.105Z,99106.91
2022-09-20T10:32:20.407Z,99109.00
2022-09-20T10:34:57.636Z,99109.09
2022-09-20T10:37:29.575Z,99107.34
2022-09-20T10:40:03.033Z,99111.38
2022-09-20T10:42:53.645Z,99107.50
2022-09-20T10:45:59.090Z,99107.47
2022-09-20T10:48:21.867Z,99111.38
2022-09-20T10:50:52.661Z,99107.53
2022-09-20T10:53:29.532Z,99109.34
2022-09-20T10:56:04.129Z,99109.00
2022-09-20T10:58:56.164Z,99117.53
2022-09-20T11:01:28.510Z,99108.66
2022-09-20T11:04:03.378Z,99108.00
2022-09-20T11:06:41.095Z,99109.03
2022-09-20T11:09:14.268Z,99105.94
2022-09-20T11:11:44.363Z,99110.94
2022-09-20T11:14:14.733Z,99112.50
2022-09-20T11:16:45.600Z,99107.66
2022-09-20T11:19:19.952Z,99112.56
2022-09-20T11:21:49.706Z,99113.06
2022-09-20T11:24:27.861Z,99107.03
2022-09-20T11:26:57.331Z,99108.34
2022-09-20T11:29:29.541Z,99109.63
2022-09-20T11:32:02.379Z,99105.72
2022-09-20T11:34:34.136Z,99101.13
2022-09-20T11:37:03.620Z,99102.50
2022-09-20T11:39:36.460Z,99102.56
2022-09-20T11:42:06.022Z,99099.91
2022-09-20T11:44:34.909Z,99101.63
2022-09-20T11:47:07.401Z,99094.75
2022-09-20T11:49:41.478Z,99096.94
2022-09-20T11:52:21.009Z,99099.38
2022-09-20T11:55:13.071Z,99109.31
2022-09-20T11:57:41.259Z,99104.78
2022-09-20T12:00:10.197Z,99109.31
2022-09-20T12:02:45.546Z,99100.50
2022-09-20T12:05:26.228Z,99094.84
2022-09-20T12:07:55.916Z,99093.50
2022-09-20T12:10:25.728Z,99089.09
2022-09-20T12:12:57.567Z,99072.25
2022-09-20T12:15:26.907Z,99080.81
2022-09-20T12:18:19.199Z,99074.06
2022-09-20T12:21:05.792Z,99090.91
2022-09-20T12:24:09.690Z,99085.13
2022-09-20T12:26:45.107Z,99082.78
2022-09-20T12:29:32.920Z,99071.25
2022-09-20T12:32:01.861Z,99048.53
2022-09-20T12:34:35.519Z,99070.59
2022-09-20T12:37:24.524Z,99065.72
2022-09-20T12:39:53.764Z,99070.50
2022-09-20T12:42:29.173Z,99071.25
2022-09-20T12:45:00.236Z,99074.53
2022-09-20T12:47:30.031Z,99061.19
2022-09-20T12:50:16.406Z,99073.03
2022-09-20T12:53:00.583Z,99072.00
2022-09-20T12:55:49.547Z,99066.06
2022-09-20T12:58:22.859Z,99076.81
2022-09-20T13:00:52.143Z,99078.91
2022-09-20T13:03:24.833Z,99079.72
2022-09-20T13:06:13.042Z,99077.00
2022-09-20T13:08:44.329Z,99088.59
2022-09-20T13:11:17.299Z,99081.25
2022-09-20T13:13:49.057Z,99083.63
2022-09-20T13:16:22.391Z,99093.16
2022-09-20T13:18:58.951Z,99084.78
2022-09-20T13:21:27.872Z,99098.97
2022-09-20T13:23:57.533Z,99092.94
2022-09-20T13:26:27.513Z,99090.00
2022-09-20T13:28:57.012Z,99094.59
2022-09-20T13:31:26.226Z,99097.16
2022-09-20T13:33:54.573Z,99102.94
2022-09-20T13:36:27.702Z,99091.84
2022-09-20T13:38:58.610Z,99107.47
2022-09-20T13:41:30.173Z,99091.97
2022-09-20T13:43:58.224Z,99098.00
2022-09-20T13:46:30.120Z,99095.66
2022-09-20T13:49:00.491Z,99099.44
2022-09-20T13:51:29.622Z,99097.31
2022-09-20T13:54:20.173Z,99092.31
2022-09-20T13:56:51.022Z,99087.38
2022-09-20T13:59:19.651Z,99088.41
2022-09-20T14:01:50.571Z,99088.06
2022-09-20T14:04:21.296Z,99093.56
2022-09-20T14:06:50.155Z,99088.13
2022-09-20T14:09:21.281Z,99082.31
2022-09-20T14:11:50.826Z,99083.53
2022-09-20T14:14:22.331Z,99080.34
2022-09-20T14:16:51.275Z,99088.25
2022-09-20T14:19:20.880Z,99079.63
2022-09-20T14:21:49.382Z,99083.97
2022-09-20T14:24:26.136Z,99080.06
2022-09-20T14:27:04.278Z,99076.75
2022-09-20T14:29:39.961Z,99078.03
2022-09-20T14:32:27.573Z,99072.00
2022-09-20T14:35:01.005Z,99079.25
2022-09-20T14:37:31.407Z,99073.22
2022-09-20T14:40:00.937Z,99083.63
2022-09-20T14:42:32.487Z,99073.16
2022-09-20T14:45:00.650Z,99078.16
2022-09-20T14:47:29.698Z,99083.13
2022-09-20T14:49:58.946Z,99074.56
2022-09-20T14:52:36.408Z,99077.13
2022-09-20T14:55:18.342Z,99080.66
2022-09-20T14:57:48.549Z,99078.97
2022-09-20T15:00:17.523Z,99081.69
2022-09-20T15:02:46.542Z,99084.47
2022-09-20T15:05:19.303Z,99083.78
2022-09-20T15:07:47.773Z,99068.53
2022-09-20T15:10:18.044Z,99077.00
2022-09-20T15:12:46.040Z,99075.06
2022-09-20T15:15:16.778Z,99074.81
2022-09-20T15:17:45.552Z,99081.81
2022-09-20T15:20:15.105Z,99075.66
2022-09-20T15:22:43.265Z,99078.19
2022-09-20T15:25:14.274Z,99079.72
2022-09-20T15:27:44.365Z,99075.56
2022-09-20T15:30:13.460Z,99078.84
2022-09-20T15:32:43.984Z,99066.34
2022-09-20T15:35:13.940Z,99070.00
2022-09-20T15:37:42.285Z,99064.09
2022-09-20T15:40:10.783Z,99063.19
2022-09-20T15:42:41.482Z,99053.56
2022-09-20T15:45:10.520Z,99065.66
2022-09-20T15:47:38.609Z,99060.13
2022-09-20T15:50:09.137Z,99059.69
2022-09-20T15:52:39.819Z,99056.06
2022-09-20T15:55:08.554Z,99060.69
2022-09-20T15:57:36.548Z,99060.09
2022-09-20T16:00:04.906Z,99064.94
2022-09-20T16:02:36.848Z,99058.19
2022-09-20T16:05:05.893Z,99061.78
2022-09-20T16:07:35.735Z,99063.75
2022-09-20T16:10:03.772Z,99068.84
2022-09-20T16:12:31.752Z,99067.31
2022-09-20T16:14:59.782Z,99064.81
2022-09-20T16:17:41.658Z,99069.91
2022-09-20T16:20:10.057Z,99069.53
2022-09-20T16:22:39.459Z,99080.19
2022-09-20T16:25:08.623Z,99072.84
2022-09-20T16:27:36.611Z,99074.75
2022-09-20T16:30:04.883Z,99075.84
2022-09-20T16:32:32.917Z,99073.66
2022-09-20T16:35:03.773Z,99075.41
2022-09-20T16:37:32.720Z,99076.63
2022-09-20T16:40:02.346Z,99073.25
2022-09-20T16:42:30.426Z,99074.81
2022-09-20T16:44:58.556Z,99075.19
2022-09-20T16:47:26.624Z,99080.75
2022-09-20T16:49:54.909Z,99082.56
2022-09-20T16:52:23.075Z,99082.59
2022-09-20T16:54:51.334Z,99090.81
2022-09-20T16:57:22.313Z,99090.13
2022-09-20T16:59:51.808Z,99094.72
2022-09-20T17:02:19.799Z,99097.28
2022-09-20T17:04:50.462Z,99087.59
2022-09-20T17:07:18.472Z,99096.19
2022-09-20T17:09:46.519Z,99097.84
2022-09-20T17:12:18.696Z,99094.59
2022-09-20T17:14:48.008Z,99098.97
2022-09-20T17:17:15.958Z,99094.38
2022-09-20T17:19:43.975Z,99111.47
2022-09-20T17:22:12.040Z,99112.75
2022-09-20T17:24:40.078Z,99118.28
2022-09-20T17:27:10.772Z,99113.69
2022-09-20T17:29:38.728Z,99115.47
2022-09-20T17:32:08.246Z,99120.75
2022-09-20T17:34:36.636Z,99120.00
2022-09-20T17:37:04.728Z,99125.59
2022-09-20T17:39:32.797Z,99128.56
2022-09-20T17:42:01.339Z,99125.56
2022-09-20T17:44:29.373Z,99130.06
2022-09-20T17:46:57.467Z,99133.34
2022-09-20T17:49:27.686Z,99125.81
2022-09-20T17:51:56.272Z,99131.91
2022-09-20T17:54:24.820Z,99134.06
2022-09-20T17:56:55.570Z,99133.59
2022-09-20T17:59:24.495Z,99136.72
2022-09-20T18:01:54.204Z,99136.03
2022-09-20T18:04:24.257Z,99141.47
2022-09-20T18:06:54.467Z,99146.34
2022-09-20T18:09:24.105Z,99149.53
2022-09-20T18:11:52.994Z,99152.78
2022-09-20T18:14:23.049Z,99156.22
2022-09-20T18:16:53.814Z,99160.56
2022-09-20T18:19:22.750Z,99168.28
2022-09-20T18:21:51.739Z,99166.94
2022-09-20T18:24:21.065Z,99174.78
2022-09-20T18:26:49.012Z,99174.81
2022-09-20T18:29:18.111Z,99178.16
2022-09-20T18:31:47.496Z,99181.84
2022-09-20T18:34:18.093Z,99184.84
2022-09-20T18:36:48.318Z,99195.75
2022-09-20T18:39:16.421Z,99195.91
2022-09-20T18:41:45.807Z,99197.19
2022-09-20T18:44:14.589Z,99208.22
2022-09-20T18:46:43.064Z,99211.97
2022-09-20T18:49:14.957Z,99212.44
2022-09-20T18:51:43.596Z,99219.50
2022-09-20T18:54:14.072Z,99218.25
2022-09-20T18:56:43.296Z,99217.63
2022-09-20T18:59:16.592Z,99221.63
2022-09-20T19:02:02.371Z,99227.88
2022-09-20T19:04:34.610Z,99230.16
2022-09-20T19:07:08.156Z,99233.47
2022-09-20T19:09:39.997Z,99233.91
2022-09-20T19:12:12.327Z,99236.34
2022-09-20T19:14:50.939Z,99238.44
2022-09-20T19:17:24.466Z,99241.97
2022-09-20T19:19:55.655Z,99242.38
2022-09-20T19:22:29.523Z,99250.09
2022-09-20T19:25:05.242Z,99248.00
2022-09-20T19:27:33.545Z,99252.81
2022-09-20T19:30:03.331Z,99257.78
2022-09-20T19:32:31.653Z,99255.69
2022-09-20T19:35:01.616Z,99270.59
2022-09-20T19:37:34.216Z,99261.47
2022-09-20T19:40:09.747Z,99268.97
2022-09-20T19:42:43.927Z,99266.31
2022-09-20T19:45:17.259Z,99274.44
2022-09-20T19:47:50.563Z,99282.06
2022-09-20T19:50:27.749Z,99298.72
2022-09-20T19:52:58.336Z,99301.69
2022-09-20T19:55:28.991Z,99301.72
2022-09-20T19:57:59.577Z,99306.59
2022-09-20T20:00:29.999Z,99311.88
2022-09-20T20:02:58.293Z,99308.09
2022-09-20T20:05:27.621Z,99303.50
2022-09-20T20:08:00.496Z,99295.66
2022-09-20T20:10:34.604Z,99290.88
2022-09-20T20:13:31.568Z,99297.09
2022-09-20T20:16:03.631Z,99299.38
2022-09-20T20:18:35.951Z,99309.50
2022-09-20T20:21:04.626Z,99310.50
2022-09-20T20:23:44.315Z,99307.94
2022-09-20T20:26:19.391Z,99318.78
2022-09-20T20:28:47.429Z,99320.53
2022-09-20T20:31:16.896Z,99327.09
2022-09-20T20:33:44.930Z,99327.34
2022-09-20T20:36:12.941Z,99322.94
2022-09-20T20:38:41.581Z,99323.13
2022-09-20T20:41:10.567Z,99319.19
2022-09-20T20:43:41.186Z,99333.34
2022-09-20T20:46:10.635Z,99328.09
2022-09-20T20:48:40.001Z,99341.88
2022-09-20T20:51:09.439Z,99344.56
2022-09-20T20:53:38.357Z,99352.97
2022-09-20T20:56:08.169Z,99356.03
2022-09-20T20:58:37.859Z,99352.72
2022-09-20T21:01:10.499Z,99347.94
2022-09-20T21:03:41.093Z,99343.47
2022-09-20T21:06:09.655Z,99355.53
2022-09-20T21:08:39.003Z,99354.66
2022-09-20T21:11:07.727Z,99362.03
2022-09-20T21:13:36.652Z,99354.56
2022-09-20T21:16:08.934Z,99360.25
2022-09-20T21:18:41.190Z,99361.56
2022-09-20T21:21:15.094Z,99362.75
2022-09-20T21:23:43.284Z,99367.06
2022-09-20T21:26:12.483Z,99362.88
2022-09-20T21:28:41.448Z,99370.19
2022-09-20T21:31:10.050Z,99365.00
2022-09-20T21:33:39.043Z,99360.28
2022-09-20T21:36:09.178Z,99364.91
2022-09-20T21:38:39.816Z,99366.38
2022-09-20T21:41:08.892Z,99367.97
2022-09-20T21:43:37.325Z,99376.63
2022-09-20T21:46:05.511Z,99374.69
2022-09-20T21:48:36.528Z,99386.44
2022-09-20T21:51:06.215Z,99385.72
2022-09-20T21:53:35.635Z,99382.41
2022-09-20T21:56:04.982Z,99389.03
2022-09-20T21:58:34.176Z,99390.06
2022-09-20T22:02:38.418Z,99376.75
2022-09-20T22:05:06.756Z,99391.13
2022-09-20T22:07:35.548Z,99385.09
2022-09-20T22:10:03.543Z,99387.13
2022-09-20T22:12:31.551Z,99385.56
2022-09-20T22:14:59.579Z,99389.78
2022-09-20T22:17:29.466Z,99388.34
2022-09-20T22:19:59.428Z,99387.03
2022-09-20T22:22:27.966Z,99389.06
2022-09-20T22:24:56.018Z,99394.16
2022-09-20T22:27:24.074Z,99387.13
2022-09-20T22:29:52.451Z,99360.88
2022-09-20T22:32:22.803Z,99391.63
2022-09-20T22:34:50.839Z,99391.13
2022-09-20T22:37:20.384Z,99393.13
2022-09-20T22:39:48.330Z,99398.50
2022-09-20T22:42:16.321Z,99394.91
2022-09-20T22:44:46.833Z,99407.59
2022-09-20T22:47:14.811Z,99399.81
2022-09-20T22:49:42.851Z,99403.22
2022-09-20T22:52:12.929Z,99407.47
2022-09-20T22:54:46.565Z,99415.25
2022-09-20T22:57:14.546Z,99413.34
2022-09-20T22:59:42.506Z,99409.78
2022-09-20T23:02:12.674Z,99414.19
2022-09-20T23:04:40.665Z,99413.84
2022-09-20T23:07:08.898Z,99416.66
2022-09-20T23:09:36.897Z,99419.47
2022-09-20T23:12:06.326Z,99419.91
2022-09-20T23:14:36.383Z,99423.16
2022-09-20T23:17:04.427Z,99426.16
2022-09-20T23:19:32.382Z,99421.13
2022-09-20T23:22:00.409Z,99413.00
2022-09-20T23:24:28.330Z,99415.72
2022-09-20T23:26:56.670Z,99410.66
2022-09-20T23:29:26.133Z,99419.34
2022-09-20T23:31:54.542Z,99418.00
2022-09-20T23:34:22.565Z,99417.00
2022-09-20T23:36:50.727Z,99420.53
2022-09-20T23:39:18.667Z,99433.16
2022-09-20T23:41:50.821Z,99423.53
2022-09-20T23:44:19.450Z,99426.03
2022-09-20T23:46:48.799Z,99422.03
2022-09-20T23:49:16.810Z,99421.06
2022-09-20T23:51:44.738Z,99420.97
2022-09-20T23:54:12.702Z,99426.13
2022-09-20T23:56:42.692Z,99433.88
2022-09-20T23:59:10.744Z,99435.91
